This is the latest recevied weather packets stored in our database for station/object HS1WDC-1. If no packets are shown the sender has not sent any weather packets the latest 10 day(s).
| Time | Temp. | Humidity | Pressure | Rain* | Wind** | Luminosity | Snow |
|---|---|---|---|---|---|---|---|
| 1777605968 | 36.11° C | 49% | 1010 hPa | - | - | 0 W/m² | - |
| 1777605044 | 36.11° C | 49% | 1010 hPa | - | - | 0 W/m² | - |
| 1777604119 | 36.11° C | 49% | 1010 hPa | - | - | 0 W/m² | - |
| 1777603195 | 35.56° C | 49% | 1010 hPa | - | - | 0 W/m² | - |
| 1777602270 | 35.56° C | 50% | 1010 hPa | - | - | 0 W/m² | - |
| 1777601346 | 35.56° C | 51% | 1011 hPa | - | - | 0 W/m² | - |
| 1777600421 | 35° C | 53% | 1011 hPa | - | - | 0 W/m² | - |
| 1777599497 | 34.44° C | 55% | 1010 hPa | - | - | 0 W/m² | - |
| 1777598573 | 33.89° C | 56% | 1010 hPa | - | - | 0 W/m² | - |
| 1777597648 | 33.89° C | 57% | 1010 hPa | - | - | 0 W/m² | - |
| 1777596724 | 32.78° C | 60% | 1010 hPa | - | - | 0 W/m² | - |
| 1777595799 | 33.33° C | 59% | 1010 hPa | - | - | 0 W/m² | - |
| 1777594875 | 32.78° C | 61% | 1010 hPa | - | - | 0 W/m² | - |
| 1777593951 | 32.22° C | 62% | 1009 hPa | - | - | 0 W/m² | - |
| 1777593026 | 32.22° C | 62% | 1009 hPa | - | - | 0 W/m² | - |
| 1777592102 | 32.22° C | 62% | 1009 hPa | - | - | 0 W/m² | - |
| 1777591178 | 31.11° C | 66% | 1009 hPa | - | - | 0 W/m² | - |
| 1777590254 | 31.11° C | 65% | 1008 hPa | - | - | 0 W/m² | - |
| 1777589329 | 32.22° C | 62% | 1008 hPa | - | - | 0 W/m² | - |
| 1777588405 | 31.67° C | 64% | 1008 hPa | - | - | 0 W/m² | - |
| 1777587481 | 31.67° C | 65% | 1008 hPa | - | - | 0 W/m² | - |
| 1777586557 | 31.67° C | 64% | 1008 hPa | - | - | 0 W/m² | - |
| 1777585632 | 31.67° C | 63% | 1008 hPa | - | - | 0 W/m² | - |
| 1777584708 | 32.22° C | 62% | 1008 hPa | - | - | 0 W/m² | - |
| 1777583784 | 31.67° C | 62% | 1008 hPa | - | - | 0 W/m² | - |
* Rain since midnight (hover to see other rain measurements)
** Current wind speed in m/s (hover to see current wind gust speed)